Latest Weather Observations for Victoria Portable AWS H (CFA)

IDV60801

Issued at 11:22 pm EST Sunday 26 June 2022 (issued every 10 minutes, with the page automatically refreshed every 10 minutes)

About weather observations | Map of weather stations | Latest weather observations for VIC | Other Formats
Station Details ID: 250137 Name: PORTABLE VIC AWS 8 (CFA) Lat: -37.62 Lon: 144.24 Height: 518.0 m

Portable automatic weather stations (PAWS) are operated by other organisations, such as Fire and Emergency Services, and are included here by agreement. Portable stations may be deployed to a location for a short period and their location may be subject to change without notice. Wind observations from these stations are provided from heights of either three (3) or ten (10) metres above ground level (AGL).

Data from the previous 72 hours. | See also: Recent months for locations in Victoria
Date/Time
EST
Temp
°C
App
Temp
°C
Dew
Point
°C
Rel
Hum
%
Delta-T
°C
Wind Press
QNH
hPa
Press
MSL
hPa
Rain since
9am
mm
Dir  Spd
km/h
Gust
km/h
Spd
kts
Gust
kts
26/11:10pm 4.7 1.2 3.6 93 0.5 SW 11 15 6 8 968.3 - 2.0
26/11:00pm 4.8 1.7 3.7 93 0.5 SW 9 13 5 7 968.2 - 2.0
26/10:50pm 4.8 2.1 3.6 92 0.5 SW 7 11 4 6 968.2 - 2.0
26/10:40pm 4.7 1.6 3.5 92 0.5 SW 9 11 5 6 968.1 - 2.0
26/10:30pm 4.6 1.1 3.4 92 0.5 SW 11 15 6 8 968.0 - 2.0
26/10:20pm 4.6 1.1 3.4 92 0.5 SW 11 13 6 7 967.8 - 2.0
26/10:10pm 4.6 1.5 3.5 93 0.5 SW 9 11 5 6 967.7 - 2.0
26/10:00pm 4.6 1.5 3.5 93 0.5 SW 9 13 5 7 967.7 - 2.0
26/09:50pm 4.6 1.1 3.4 92 0.5 WSW 11 11 6 6 967.6 - 2.0
26/09:40pm 4.7 0.8 3.6 93 0.5 WSW 13 15 7 8 967.4 - 2.0
26/09:30pm 4.2 0.7 3.3 94 0.4 WSW 11 13 6 7 967.4 - 2.0
26/09:20pm 4.2 0.6 3.2 93 0.4 WSW 11 13 6 7 967.5 - 2.0
26/09:10pm 4.4 0.8 3.2 92 0.5 WSW 11 13 6 7 967.2 - 2.0
26/09:00pm 4.5 1.3 3.3 92 0.5 WSW 9 11 5 6 967.1 - 2.0
26/08:50pm 4.4 0.9 3.3 93 0.5 WSW 11 13 6 7 967.0 - 2.0
26/08:40pm 4.5 0.6 3.3 92 0.5 WSW 13 15 7 8 966.8 - 2.0
26/08:30pm 4.8 0.9 3.4 91 0.6 WSW 13 15 7 8 966.7 - 2.0
26/08:20pm 4.7 0.8 3.4 91 0.6 WSW 13 15 7 8 966.6 - 2.0
26/08:10pm 5.0 1.1 3.6 91 0.6 WSW 13 15 7 8 966.5 - 2.0
26/08:00pm 5.2 1.7 3.7 90 0.6 SW 11 15 6 8 966.4 - 2.0
26/07:50pm 5.4 2.4 3.9 90 0.7 SW 9 13 5 7 966.3 - 2.0
26/07:40pm 5.5 2.1 4.0 90 0.7 SW 11 15 6 8 966.2 - 2.0
26/07:30pm 5.6 1.8 3.9 89 0.7 SW 13 15 7 8 966.2 - 2.0
26/07:20pm 5.7 2.3 4.0 89 0.7 SW 11 15 6 8 966.1 - 2.0
26/07:10pm 5.7 2.3 4.0 89 0.7 SW 11 15 6 8 965.9 - 2.0
26/07:00pm 5.7 2.3 4.1 89 0.7 WSW 11 15 6 8 965.8 - 2.0
26/06:50pm 5.7 2.7 4.3 91 0.6 SW 9 11 5 6 965.7 - 2.0
26/06:40pm 5.9 2.6 4.3 89 0.7 SW 11 13 6 7 965.6 - 2.0
26/06:30pm 5.8 2.4 4.2 89 0.7 SW 11 15 6 8 965.5 - 2.0
26/06:20pm 5.8 2.4 4.1 89 0.7 SW 11 13 6 7 965.4 - 2.0
26/06:10pm 5.7 2.4 4.3 91 0.6 SW 11 11 6 6 965.4 - 2.0
26/06:00pm 5.8 2.4 4.2 89 0.7 SW 11 13 6 7 965.1 - 2.0
26/05:50pm 5.7 2.3 4.2 90 0.7 WSW 11 13 6 7 965.1 - 2.0
26/05:40pm 5.8 2.8 4.3 90 0.7 SW 9 13 5 7 964.9 - 2.0
26/05:30pm 5.9 2.2 4.2 89 0.7 SW 13 17 7 9 964.8 - 2.0
26/05:20pm 6.0 2.3 4.2 88 0.8 SW 13 17 7 9 964.7 - 2.0
26/05:10pm 6.1 2.4 4.4 89 0.8 SW 13 15 7 8 964.6 - 2.0
26/05:00pm 6.2 2.5 4.6 89 0.7 SW 13 17 7 9 964.6 - 2.0
26/04:50pm 6.4 2.0 5.0 91 0.6 SW 17 22 9 12 964.5 - 2.0
26/04:40pm 6.6 2.6 4.7 88 0.9 SW 15 19 8 10 964.4 - 2.0
26/04:30pm 6.6 2.9 4.7 88 0.9 SW 13 17 7 9 964.3 - 2.0
26/04:20pm 6.6 2.2 4.5 86 0.9 SW 17 19 9 10 964.2 - 2.0
26/04:10pm 6.6 1.8 4.5 86 0.9 SW 19 22 10 12 964.0 - 2.0
26/04:00pm 6.7 1.9 4.6 86 0.9 SW 19 28 10 15 963.9 - 2.0
26/03:50pm 7.5 2.6 5.2 85 1.1 SW 20 26 11 14 963.7 - 2.0
26/03:40pm 8.7 4.0 5.2 79 1.6 WSW 19 22 10 12 963.3 - 2.0
26/03:30pm 9.0 5.1 5.4 78 1.7 WSW 15 15 8 8 963.2 - 2.0
26/03:20pm 8.7 4.8 5.4 80 1.5 WSW 15 17 8 9 963.1 - 2.0
26/03:10pm 8.2 4.0 5.5 83 1.3 WSW 17 19 9 10 963.1 - 2.0
26/03:00pm 8.3 4.0 5.3 81 1.4 WSW 17 20 9 11 963.0 - 2.0
26/02:50pm 8.2 3.9 5.3 82 1.3 W 17 19 9 10 962.8 - 2.0
26/02:40pm 8.1 3.1 4.7 79 1.5 WSW 20 22 11 12 962.8 - 2.0
26/02:30pm 8.0 3.2 4.9 81 1.4 WSW 19 20 10 11 962.8 - 2.0
26/02:20pm 7.7 3.7 5.1 83 1.2 WSW 15 20 8 11 962.8 - 2.0
26/02:10pm 7.5 2.4 5.8 89 0.8 WSW 22 33 12 18 962.9 - 2.0
26/02:00pm 8.3 4.3 6.8 90 0.7 WSW 17 20 9 11 962.9 - 1.8
26/01:50pm 8.3 4.7 6.7 90 0.8 W 15 19 8 10 962.9 - 1.8
26/01:40pm 8.2 4.6 6.7 90 0.7 W 15 19 8 10 962.9 - 1.8
26/01:30pm 8.2 4.5 6.5 89 0.8 WSW 15 17 8 9 963.0 - 1.8
26/01:20pm 8.2 4.9 6.6 90 0.8 WSW 13 15 7 8 963.0 - 1.8
26/01:10pm 8.2 5.3 6.6 90 0.8 WSW 11 15 6 8 963.1 - 1.8
26/01:00pm 7.9 4.6 6.5 91 0.7 WSW 13 17 7 9 963.1 - 1.8
26/12:50pm 7.9 4.6 6.3 90 0.8 WSW 13 17 7 9 963.1 - 1.8
26/12:40pm 7.8 4.8 6.2 90 0.8 WSW 11 13 6 7 963.2 - 1.8
26/12:30pm 7.5 4.5 6.0 90 0.7 SW 11 15 6 8 963.3 - 1.8
26/12:20pm 7.1 3.8 6.3 95 0.4 SW 13 15 7 8 963.4 - 1.8
26/12:10pm 6.9 3.6 6.4 97 0.2 SW 13 19 7 10 963.5 - 1.8
26/12:00pm 6.9 3.2 6.3 96 0.3 SSW 15 19 8 10 963.4 - 1.4
26/11:50am 7.1 3.0 6.4 95 0.3 SSW 17 20 9 11 963.3 - 1.2
26/11:40am 7.9 5.1 7.1 95 0.4 SSW 11 13 6 7 963.3 - 1.2
26/11:30am 9.1 5.7 7.5 90 0.8 W 15 20 8 11 963.3 - 0.0
26/11:20am 9.5 4.9 6.7 83 1.3 WNW 20 22 11 12 963.1 - 0.0
26/11:10am 9.4 4.8 6.7 83 1.3 WNW 20 22 11 12 963.0 - 0.0
26/11:00am 9.3 4.9 6.6 83 1.3 WNW 19 22 10 12 963.0 - 0.0
26/10:50am 9.5 4.6 6.8 83 1.3 WNW 22 24 12 13 963.0 - 0.0
26/10:40am 9.4 4.8 6.5 82 1.4 WNW 20 22 11 12 962.9 - 0.0
26/10:30am 9.2 4.7 6.8 85 1.2 WNW 20 24 11 13 963.0 - 0.0
26/10:20am 9.3 5.0 6.9 85 1.2 WNW 19 24 10 13 963.0 - 0.0
26/10:10am 8.7 4.8 6.9 88 0.9 WNW 17 20 9 11 963.0 - 0.0
26/10:00am 8.7 4.7 6.7 87 1.0 WNW 17 19 9 10 962.9 - 0.0
26/09:50am 8.3 3.8 6.8 90 0.7 WNW 20 24 11 13 962.8 - 0.0
26/09:40am 8.3 3.7 6.7 90 0.8 WNW 20 26 11 14 962.8 - 0.0
26/09:30am 8.5 4.1 6.6 88 0.9 WNW 19 20 10 11 962.7 - 0.0
26/09:20am 8.5 4.1 6.7 88 0.9 WNW 19 22 10 12 962.6 - 0.0
26/09:10am 8.5 4.5 6.6 88 0.9 WNW 17 19 9 10 962.5 - 0.0
26/09:00am 8.3 3.9 6.6 89 0.8 WNW 19 20 10 11 962.5 - 0.2
26/08:50am 8.3 4.6 6.5 88 0.9 WNW 15 17 8 9 962.4 - 0.2
26/08:40am 8.1 4.1 6.5 90 0.8 WNW 17 20 9 11 962.4 - 0.2
26/08:30am 7.9 4.2 6.5 91 0.7 WNW 15 19 8 10 962.3 - 0.2
26/08:20am 7.7 4.0 6.4 91 0.6 WNW 15 19 8 10 962.2 - 0.2
26/08:10am 7.7 3.7 6.7 93 0.5 WNW 17 20 9 11 962.0 - 0.2
26/08:00am 7.8 3.3 6.9 94 0.4 WNW 20 24 11 13 962.1 - 0.2
26/07:50am 8.0 3.6 6.6 91 0.7 WNW 19 20 10 11 962.0 - 0.2
26/07:40am 8.0 3.6 6.5 90 0.7 WNW 19 20 10 11 961.8 - 0.2
26/07:30am 8.0 3.9 6.4 90 0.8 WNW 17 20 9 11 961.8 - 0.2
26/07:20am 7.9 3.8 6.4 90 0.7 WNW 17 20 9 11 961.7 - 0.2
26/07:10am 7.9 3.8 6.4 90 0.7 WNW 17 19 9 10 961.7 - 0.2
26/07:00am 7.7 3.6 6.2 90 0.7 NW 17 20 9 11 961.6 - 0.2
26/06:50am 7.7 4.0 6.1 90 0.7 NW 15 19 8 10 961.5 - 0.2
26/06:40am 7.7 3.6 6.2 90 0.7 WNW 17 19 9 10 961.5 - 0.2
26/06:30am 7.5 3.8 6.2 91 0.6 WNW 15 19 8 10 961.4 - 0.2
26/06:20am 7.4 4.1 6.2 92 0.6 WNW 13 17 7 9 961.3 - 0.2
26/06:10am 7.5 4.2 6.2 91 0.6 WNW 13 17 7 9 961.2 - 0.2
26/06:00am 7.4 3.7 6.1 91 0.6 WNW 15 17 8 9 960.9 - 0.2
26/05:50am 7.2 3.1 6.0 92 0.6 WNW 17 19 9 10 960.8 - 0.2
26/05:40am 7.2 2.7 6.0 92 0.6 W 19 19 10 10 960.7 - 0.2
26/05:30am 7.3 2.8 6.0 91 0.6 WNW 19 20 10 11 960.7 - 0.2
26/05:20am 7.4 2.9 6.2 92 0.6 WNW 19 19 10 10 960.5 - 0.2
26/05:10am 7.5 3.1 6.4 93 0.5 WNW 19 20 10 11 960.4 - 0.2
26/05:00am 7.7 3.3 6.5 92 0.6 WNW 19 22 10 12 960.3 - 0.2
26/04:50am 7.9 3.3 6.7 92 0.6 WNW 20 22 11 12 960.3 - 0.2
26/04:40am 8.1 3.6 6.9 92 0.6 WNW 20 22 11 12 960.3 - 0.2
26/04:30am 8.2 3.7 7.1 93 0.5 WNW 20 22 11 12 960.1 - 0.2
26/04:20am 8.4 3.6 7.3 93 0.5 WNW 22 26 12 14 960.1 - 0.2
26/04:10am 8.4 3.6 7.5 94 0.4 WNW 22 24 12 13 960.2 - 0.2
26/04:00am 8.4 4.2 7.6 95 0.4 WNW 19 22 10 12 960.2 - 0.2
26/03:50am 8.4 4.6 7.7 95 0.3 WNW 17 20 9 11 960.2 - 0.2
26/03:40am 8.5 3.8 7.6 94 0.4 WNW 22 24 12 13 960.2 - 0.0
26/03:30am 8.6 3.8 7.5 93 0.5 WNW 22 26 12 14 960.0 - 0.0
26/03:20am 8.6 3.8 7.5 93 0.5 WNW 22 26 12 14 960.0 - 0.0
26/03:10am 8.6 3.8 7.5 93 0.5 WNW 22 24 12 13 959.9 - 0.0
26/03:00am 8.7 3.9 7.3 91 0.7 NW 22 32 12 17 959.9 - 0.0
26/02:50am 8.8 4.4 7.2 90 0.8 NW 20 24 11 13 960.0 - 0.0
26/02:40am 8.7 4.3 7.2 90 0.7 NW 20 26 11 14 959.9 - 0.0
26/02:30am 8.8 4.4 7.3 90 0.7 NW 20 26 11 14 959.9 - 0.0
26/02:20am 8.7 3.8 7.1 90 0.8 NW 22 28 12 15 960.1 - 0.0
26/02:10am 8.7 3.8 7.0 89 0.8 WNW 22 28 12 15 960.1 - 0.0
26/02:00am 8.6 3.3 6.9 89 0.8 NW 24 26 13 14 960.0 - 0.0
26/01:50am 8.5 3.6 6.9 90 0.8 NW 22 24 12 13 960.0 - 0.0
26/01:40am 8.5 4.0 6.9 90 0.8 NW 20 24 11 13 960.0 - 0.0
26/01:30am 8.5 3.6 6.9 90 0.8 NW 22 26 12 14 959.9 - 0.0
26/01:20am 8.6 3.4 7.1 90 0.7 NW 24 28 13 15 959.9 - 0.0
26/01:10am 8.8 3.6 7.3 90 0.7 NW 24 28 13 15 960.0 - 0.0
26/01:00am 8.9 3.7 7.2 89 0.8 NW 24 32 13 17 960.1 - 0.0
26/12:50am 8.9 4.1 7.3 90 0.8 WNW 22 26 12 14 960.1 - 0.0
26/12:40am 8.9 3.4 7.4 90 0.7 NW 26 30 14 16 960.3 - 0.0
26/12:30am 8.9 3.4 7.4 90 0.7 NW 26 32 14 17 960.2 - 0.0
26/12:20am 8.9 3.7 7.4 90 0.7 WNW 24 30 13 16 960.2 - 0.0
26/12:10am 8.9 3.7 7.4 90 0.7 WNW 24 26 13 14 960.3 - 0.0
26/12:00am 8.9 3.7 7.4 90 0.7 WNW 24 28 13 15 960.3 - 0.0
 
Date/Time
EST
Temp
°C
App
Temp
°C
Dew
Point
°C
Rel
Hum
%
Delta-T
°C
Wind Press
QNH
hPa
Press
MSL
hPa
Rain since
9am
mm
Dir  Spd
km/h
Gust
km/h
Spd
kts
Gust
kts
25/11:50pm 8.8 4.0 7.3 90 0.7 WNW 22 26 12 14 960.3 - 0.0
25/11:40pm 8.8 3.6 7.3 90 0.7 WNW 24 30 13 16 960.3 - 0.0
25/11:30pm 8.9 3.7 7.4 90 0.7 NW 24 30 13 16 960.2 - 0.0
25/11:20pm 9.1 3.5 7.3 88 0.9 NW 26 30 14 16 960.2 - 0.0
25/11:10pm 9.1 3.5 7.2 88 0.9 WNW 26 32 14 17 960.1 - 0.0
25/11:00pm 9.1 3.9 7.1 87 1.0 WNW 24 30 13 16 960.0 - 0.0
25/10:50pm 9.1 3.1 7.0 87 1.0 NW 28 33 15 18 960.0 - 0.0
25/10:40pm 9.1 3.0 6.8 85 1.1 NW 28 30 15 16 959.7 - 0.0
25/10:30pm 9.1 2.7 6.8 85 1.1 NW 30 33 16 18 959.5 - 0.0
25/10:20pm 9.3 3.2 6.8 84 1.2 NW 28 30 15 16 959.6 - 0.0
25/10:10pm 9.3 3.2 6.8 84 1.2 NW 28 35 15 19 959.6 - 0.0
25/10:00pm 9.3 3.3 6.9 85 1.2 NW 28 32 15 17 959.7 - 0.0
25/09:50pm 9.3 2.8 6.7 84 1.2 NW 30 35 16 19 959.6 - 0.0
25/09:40pm 9.3 3.6 6.8 84 1.2 NW 26 30 14 16 959.6 - 0.0
25/09:30pm 9.1 3.8 6.7 85 1.2 NW 24 28 13 15 959.7 - 0.0
25/09:20pm 9.0 3.7 6.7 85 1.1 NW 24 26 13 14 959.6 - 0.0
25/09:10pm 9.1 3.4 6.8 85 1.1 NW 26 28 14 15 959.6 - 0.0
25/09:00pm 9.2 2.8 6.9 85 1.1 NW 30 35 16 19 959.5 - 0.0
25/08:50pm 9.3 3.3 6.9 85 1.2 NW 28 33 15 18 959.4 - 0.0
25/08:40pm 9.3 2.9 6.8 84 1.2 NW 30 33 16 18 959.4 - 0.0
25/08:30pm 9.0 3.3 6.8 86 1.1 NW 26 32 14 17 959.4 - 0.0
25/08:20pm 9.0 3.3 6.9 87 1.0 NW 26 32 14 17 959.4 - 0.0
25/08:10pm 9.0 3.0 6.9 87 1.0 NW 28 30 15 16 959.3 - 0.0
25/08:00pm 9.0 3.0 7.0 87 1.0 NW 28 35 15 19 959.2 - 0.0
25/07:50pm 9.1 3.4 6.9 86 1.1 NW 26 32 14 17 959.2 - 0.0
25/07:40pm 9.2 3.5 6.9 85 1.1 NW 26 32 14 17 959.3 - 0.0
25/07:30pm 9.1 3.5 7.2 88 0.9 NW 26 30 14 16 959.2 - 0.0
25/07:20pm 9.2 3.6 7.2 87 1.0 NW 26 30 14 16 959.3 - 0.0
25/07:10pm 9.3 3.3 7.2 87 1.0 NW 28 33 15 18 959.3 - 0.0
25/07:00pm 9.2 3.6 7.0 86 1.1 NW 26 30 14 16 959.0 - 0.0
25/06:50pm 9.2 3.5 6.9 85 1.1 NW 26 30 14 16 959.1 - 0.0
25/06:40pm 9.0 3.7 7.0 87 1.0 NW 24 28 13 15 959.0 - 0.0
25/06:30pm 9.1 4.2 7.0 87 1.0 NW 22 26 12 14 958.9 - 0.0
25/06:20pm 9.1 3.8 6.9 86 1.1 NW 24 28 13 15 958.9 - 0.0
25/06:10pm 9.1 3.8 6.9 86 1.1 NW 24 26 13 14 958.8 - 0.0
25/06:00pm 9.0 4.1 7.0 87 1.0 NW 22 26 12 14 958.7 - 0.0
25/05:50pm 9.0 4.1 7.0 87 1.0 NW 22 26 12 14 958.6 - 0.0
25/05:40pm 8.9 4.0 6.9 87 1.0 NW 22 26 12 14 958.7 - 0.0
25/05:30pm 8.7 4.4 6.8 88 0.9 NW 19 20 10 11 958.7 - 0.0
25/05:20pm 8.7 4.2 6.8 88 0.9 NW 20 22 11 12 958.6 - 0.0
25/05:10pm 8.9 4.4 6.8 87 1.0 NW 20 24 11 13 958.6 - 0.0
25/05:00pm 9.0 4.7 6.9 87 1.0 NW 19 22 10 12 958.5 - 0.0
25/04:50pm 9.3 4.4 7.0 85 1.1 NW 22 26 12 14 958.7 - 0.0
25/04:40pm 9.7 4.5 7.2 84 1.2 NW 24 26 13 14 958.7 - 0.0
25/04:30pm 10.0 5.2 7.3 83 1.3 NW 22 26 12 14 958.9 - 0.0
25/04:20pm 10.1 5.7 7.4 83 1.3 NW 20 26 11 14 958.8 - 0.0
25/04:10pm 10.4 6.0 7.5 82 1.4 NW 20 22 11 12 958.8 - 0.0
25/04:00pm 10.5 5.7 7.4 81 1.5 NW 22 32 12 17 958.8 - 0.0
25/03:50pm 10.6 5.4 7.3 80 1.6 NW 24 28 13 15 959.0 - 0.0
25/03:40pm 10.7 5.6 7.5 80 1.6 NW 24 28 13 15 959.0 - 0.0
25/03:30pm 10.9 5.3 7.1 77 1.9 NW 26 32 14 17 958.8 - 0.0
25/03:20pm 11.1 5.4 6.9 75 2.1 NW 26 33 14 18 958.6 - 0.0
25/03:10pm 11.2 6.0 7.1 76 2.0 NW 24 28 13 15 958.7 - 0.0
25/03:00pm 11.2 5.9 6.9 75 2.1 NW 24 30 13 16 958.6 - 0.0
25/02:50pm 10.6 5.7 6.9 78 1.8 NW 22 28 12 15 958.5 - 0.0
25/02:40pm 10.6 4.8 6.4 75 2.0 NW 26 32 14 17 958.7 - 0.0
25/02:30pm 10.9 5.2 6.5 74 2.1 NW 26 30 14 16 958.7 - 0.0
25/02:20pm 11.0 4.8 6.2 72 2.3 WNW 28 35 15 19 958.7 - 0.0
25/02:10pm 11.2 4.6 6.1 71 2.5 NW 30 37 16 20 958.5 - 0.0
25/02:00pm 10.9 5.6 6.8 76 2.0 NW 24 28 13 15 958.5 - 0.0
25/01:50pm 10.5 4.8 6.8 78 1.8 WNW 26 33 14 18 958.7 - 0.0
25/01:40pm 10.1 4.1 7.0 81 1.5 WNW 28 32 15 17 958.9 - 0.0
25/01:30pm 10.2 4.1 6.8 79 1.6 WNW 28 33 15 18 958.8 - 0.0
25/01:20pm 10.3 5.1 7.1 80 1.6 WNW 24 30 13 16 958.9 - 0.0
25/01:10pm 10.2 5.0 7.1 81 1.5 WNW 24 32 13 17 959.1 - 0.0
25/01:00pm 9.8 4.1 6.8 81 1.5 WNW 26 30 14 16 959.1 - 0.0
25/12:50pm 9.6 4.7 6.9 83 1.3 WNW 22 28 12 15 959.2 - 0.0
25/12:40pm 9.8 3.3 6.3 79 1.7 NW 30 35 16 19 959.1 - 0.0
25/12:30pm 9.9 4.0 5.9 76 1.9 NW 26 32 14 17 959.2 - 0.0
25/12:20pm 10.1 3.9 6.0 76 2.0 WNW 28 33 15 18 959.3 - 0.0
25/12:10pm 10.5 3.9 6.0 74 2.1 WNW 30 37 16 20 959.1 - 0.0
25/12:00pm 10.6 4.0 6.2 74 2.1 NW 30 35 16 19 959.3 - 0.0
25/11:50am 10.5 4.7 6.3 75 2.0 NW 26 32 14 17 959.4 - 0.0
25/11:40am 9.9 3.2 5.8 75 1.9 NW 30 41 16 22 959.3 - 0.0
25/11:30am 9.7 3.1 6.0 78 1.8 WNW 30 37 16 20 959.3 - 0.0
25/11:20am 9.7 3.1 6.0 78 1.8 NW 30 35 16 19 959.4 - 0.0
25/11:10am 9.6 3.0 6.2 79 1.6 NW 30 32 16 17 959.6 - 0.0
25/11:00am 9.6 3.7 6.0 78 1.7 WNW 26 30 14 16 959.5 - 0.0
25/10:50am 9.5 4.1 6.2 80 1.6 NW 24 28 13 15 959.6 - 0.0
25/10:40am 9.5 3.3 6.3 80 1.5 NW 28 35 15 19 959.7 - 0.0
25/10:30am 9.5 3.6 6.0 79 1.7 WNW 26 32 14 17 959.6 - 0.0
25/10:20am 9.3 3.4 6.0 80 1.6 NW 26 33 14 18 959.4 - 0.0
25/10:10am 9.1 2.9 6.1 81 1.4 NW 28 33 15 18 959.5 - 0.0
25/10:00am 9.0 3.9 6.2 82 1.3 NW 22 28 12 15 959.6 - 0.0
25/09:50am 8.9 3.1 6.1 82 1.3 NW 26 30 14 16 959.3 - 0.0
25/09:40am 8.9 3.8 6.1 82 1.3 NW 22 26 12 14 959.3 - 0.0
25/09:30am 8.8 4.4 6.4 85 1.1 NW 19 24 10 13 959.2 - 0.0
25/09:20am 8.5 3.8 6.2 85 1.1 NW 20 22 11 12 959.0 - 0.0
25/09:10am 8.0 3.5 6.1 88 0.9 NW 19 22 10 12 959.0 - 0.0
25/09:00am 7.7 3.2 6.3 91 0.7 NW 19 22 10 12 959.1 - 0.0
25/08:50am 7.6 3.1 6.3 91 0.6 NW 19 20 10 11 958.9 - 0.0
25/08:40am 7.6 3.5 6.3 91 0.6 NW 17 20 9 11 958.8 - 0.0
25/08:30am 7.5 3.4 6.3 92 0.6 NW 17 20 9 11 958.8 - 0.0
25/08:20am 7.5 3.0 6.1 91 0.7 NW 19 20 10 11 958.7 - 0.0
25/08:10am 7.3 3.1 5.8 90 0.7 NW 17 20 9 11 958.5 - 0.0
25/08:00am 6.9 2.1 5.6 91 0.6 NW 20 26 11 14 958.3 - 0.0
25/07:50am 6.9 2.1 5.5 91 0.6 NW 20 22 11 12 958.2 - 0.0
25/07:40am 7.0 2.4 5.4 89 0.7 NW 19 22 10 12 958.1 - 0.0
25/07:30am 7.2 2.4 5.4 88 0.8 NW 20 24 11 13 958.1 - 0.0
25/07:20am 7.3 2.5 5.4 88 0.9 NW 20 22 11 12 958.1 - 0.0
25/07:10am 7.3 2.7 5.5 88 0.8 NW 19 22 10 12 958.1 - 0.0
25/07:00am 7.2 2.6 5.6 89 0.7 WNW 19 22 10 12 958.2 - 0.0
25/06:50am 7.1 2.9 5.5 89 0.7 WNW 17 19 9 10 958.1 - 0.0
25/06:40am 7.1 2.5 5.4 89 0.8 NW 19 20 10 11 957.9 - 0.0
25/06:30am 7.0 3.1 5.4 89 0.7 WNW 15 22 8 12 958.0 - 0.0
25/06:20am 6.8 2.9 5.4 91 0.6 WNW 15 19 8 10 957.8 - 0.0
25/06:10am 6.9 2.3 5.4 90 0.7 NW 19 20 10 11 957.6 - 0.0
25/06:00am 7.1 2.5 5.5 89 0.7 NW 19 22 10 12 957.3 - 0.0
25/05:50am 7.2 2.4 5.4 88 0.8 NW 20 22 11 12 957.4 - 0.0
25/05:40am 7.1 2.2 5.1 87 0.9 NW 20 20 11 11 957.2 - 0.0
25/05:30am 7.1 2.8 5.1 87 0.9 NW 17 19 9 10 957.2 - 0.0
25/05:20am 7.1 2.4 5.2 88 0.9 NW 19 22 10 12 957.0 - 0.0
25/05:10am 7.0 2.1 5.3 89 0.8 NW 20 22 11 12 957.0 - 0.0
25/05:00am 6.8 2.1 5.3 90 0.7 NW 19 20 10 11 957.0 - 0.0
25/04:50am 6.5 1.8 5.2 91 0.6 NW 19 20 10 11 957.0 - 0.0
25/04:40am 6.3 1.6 5.0 91 0.6 NW 19 22 10 12 956.9 - 0.0
25/04:30am 6.3 1.6 5.0 91 0.6 NW 19 20 10 11 956.9 - 0.0
25/04:20am 6.3 1.9 4.9 91 0.6 NW 17 19 9 10 956.8 - 0.0
25/04:10am 6.4 2.0 4.8 89 0.7 NW 17 19 9 10 956.8 - 0.0
25/04:00am 6.5 2.1 4.7 88 0.8 NW 17 19 9 10 956.7 - 0.0
25/03:50am 6.5 2.1 4.6 88 0.8 NW 17 19 9 10 956.8 - 0.0
25/03:40am 6.6 1.8 4.5 86 0.9 NW 19 19 10 10 956.7 - 0.0
25/03:30am 6.5 2.4 4.6 88 0.8 NW 15 17 8 9 956.8 - 0.0
25/03:20am 6.5 2.8 4.6 88 0.8 WNW 13 15 7 8 956.8 - 0.0
25/03:10am 6.6 2.9 4.5 86 0.9 WNW 13 15 7 8 956.8 - 0.0
25/03:00am 6.7 3.0 4.6 86 0.9 NW 13 15 7 8 956.7 - 0.0
25/02:50am 6.9 3.2 4.7 86 1.0 NW 13 15 7 8 956.7 - 0.0
25/02:40am 7.0 3.3 4.7 85 1.0 WNW 13 15 7 8 956.7 - 0.0
25/02:30am 7.2 3.2 4.9 85 1.0 WNW 15 15 8 8 956.6 - 0.0
25/02:20am 7.3 2.9 4.9 85 1.1 WNW 17 20 9 11 956.6 - 0.0
25/02:10am 7.3 2.6 5.0 85 1.0 WNW 19 22 10 12 956.6 - 0.0
25/02:00am 7.2 2.8 5.0 86 1.0 WNW 17 19 9 10 956.7 - 0.0
25/01:50am 7.2 3.2 5.0 86 1.0 WNW 15 19 8 10 956.6 - 0.0
25/01:40am 7.3 3.0 5.2 86 1.0 WNW 17 19 9 10 956.6 - 0.0
25/01:30am 7.1 3.2 5.2 88 0.9 WNW 15 17 8 9 956.6 - 0.0
25/01:20am 7.1 3.2 5.3 88 0.8 NW 15 19 8 10 956.5 - 0.0
25/01:10am 7.1 3.6 5.3 88 0.8 WNW 13 15 7 8 956.7 - 0.0
25/01:00am 7.0 3.1 5.3 89 0.8 WNW 15 17 8 9 956.8 - 0.0
25/12:50am 6.9 3.4 5.3 89 0.7 WNW 13 15 7 8 956.9 - 0.0
25/12:40am 7.0 3.5 5.4 89 0.7 WNW 13 15 7 8 957.0 - 0.0
25/12:30am 7.2 3.7 5.4 88 0.8 WNW 13 15 7 8 957.0 - 0.0
25/12:20am 7.4 3.5 5.5 88 0.9 WNW 15 17 8 9 957.0 - 0.0
25/12:10am 7.5 3.6 5.5 87 0.9 WNW 15 17 8 9 957.2 - 0.0
25/12:00am 7.5 4.0 5.6 88 0.9 WNW 13 15 7 8 957.2 - 0.0
 
Date/Time
EST
Temp
°C
App
Temp
°C
Dew
Point
°C
Rel
Hum
%
Delta-T
°C
Wind Press
QNH
hPa
Press
MSL
hPa
Rain since
9am
mm
Dir  Spd
km/h
Gust
km/h
Spd
kts
Gust
kts
24/11:50pm 7.6 4.1 5.6 87 0.9 WNW 13 13 7 7 957.2 - 0.0
24/11:40pm 7.7 4.3 5.8 88 0.9 WNW 13 15 7 8 957.1 - 0.0
24/11:30pm 7.8 4.4 5.9 88 0.9 WNW 13 15 7 8 957.2 - 0.0
24/11:20pm 7.8 4.8 6.0 88 0.8 WNW 11 11 6 6 957.2 - 0.0
24/11:10pm 7.8 4.8 6.1 89 0.8 WNW 11 13 6 7 957.2 - 0.0
24/11:00pm 7.8 4.8 6.1 89 0.8 NW 11 13 6 7 957.1 - 0.0
24/10:50pm 7.8 4.4 6.1 89 0.8 NW 13 15 7 8 957.1 - 0.0
24/10:40pm 7.8 4.8 6.1 89 0.8 NW 11 13 6 7 957.2 - 0.0
24/10:30pm 7.7 5.1 6.1 90 0.7 WNW 9 11 5 6 957.2 - 0.0
24/10:20pm 7.7 5.1 6.1 90 0.7 NW 9 9 5 5 957.3 - 0.0
24/10:10pm 7.7 5.1 6.2 90 0.7 NW 9 9 5 5 957.4 - 0.0
24/10:00pm 7.7 5.1 6.1 90 0.7 WNW 9 11 5 6 957.4 - 0.0
24/09:50pm 7.5 4.9 6.1 91 0.7 NW 9 9 5 5 957.4 - 0.0
24/09:40pm 7.5 4.9 6.1 91 0.7 WNW 9 9 5 5 957.4 - 0.0
24/09:30pm 7.5 4.9 6.1 91 0.7 NW 9 9 5 5 957.3 - 0.0
24/09:20pm 7.6 5.0 6.2 91 0.7 NW 9 11 5 6 957.4 - 0.0
24/09:10pm 7.6 5.0 6.1 90 0.7 WNW 9 11 5 6 957.4 - 0.0
24/09:00pm 7.5 4.9 6.2 91 0.6 NW 9 9 5 5 957.4 - 0.0
24/08:50pm 7.3 5.3 6.1 92 0.6 WNW 6 9 3 5 957.4 - 0.0
24/08:40pm 7.5 5.9 6.2 91 0.6 WSW 4 6 2 3 957.4 - 0.0
24/08:30pm 7.9 5.9 6.3 90 0.8 WNW 6 6 3 3 957.4 - 0.0
24/08:20pm 8.0 5.8 6.3 89 0.8 NW 7 7 4 4 957.4 - 0.0
24/08:10pm 7.8 5.6 6.2 90 0.8 WNW 7 7 4 4 957.4 - 0.0
24/08:00pm 7.8 5.6 6.1 89 0.8 WNW 7 7 4 4 957.4 - 0.0
24/07:50pm 7.9 5.7 6.0 88 0.9 W 7 7 4 4 957.4 - 0.0
24/07:40pm 7.8 5.6 6.0 88 0.8 W 7 9 4 5 957.3 - 0.0
24/07:30pm 7.7 5.4 5.9 88 0.8 WNW 7 7 4 4 957.3 - 0.0
24/07:20pm 7.7 5.4 5.9 88 0.8 WNW 7 9 4 5 957.2 - 0.0
24/07:10pm 7.3 4.6 5.7 89 0.7 WNW 9 11 5 6 957.0 - 0.0
24/07:00pm 7.0 3.9 5.4 89 0.7 WNW 11 11 6 6 956.9 - 0.0
24/06:50pm 6.9 4.1 5.2 89 0.8 W 9 13 5 7 956.8 - 0.0
24/06:40pm 6.9 4.2 5.5 91 0.6 NNW 9 11 5 6 956.6 - 0.0
24/06:30pm 7.3 4.6 5.5 88 0.8 NW 9 9 5 5 956.6 - 0.0
24/06:20pm 7.4 4.7 5.5 88 0.9 NW 9 11 5 6 956.6 - 0.0
24/06:10pm 7.5 5.2 5.6 88 0.9 NW 7 9 4 5 956.5 - 0.0
24/06:00pm 7.7 5.5 5.5 86 1.0 NNW 6 6 3 3 956.4 - 0.0
24/05:50pm 8.1 5.8 5.5 84 1.2 WNW 7 7 4 4 956.4 - 0.0
24/05:40pm 8.3 6.0 5.7 84 1.2 W 7 7 4 4 956.2 - 0.0
24/05:30pm 8.6 6.3 5.6 81 1.4 W 7 9 4 5 956.1 - 0.0
24/05:20pm 8.9 6.2 5.8 81 1.5 WNW 9 11 5 6 956.0 - 0.0
24/05:10pm 9.4 6.4 5.9 79 1.7 W 11 15 6 8 955.9 - 0.0
24/05:00pm 9.8 6.1 6.1 78 1.8 WNW 15 15 8 8 955.8 - 0.0
24/04:50pm 10.2 6.5 6.1 76 2.0 W 15 19 8 10 955.7 - 0.0
24/04:40pm 10.1 5.5 5.8 74 2.0 W 19 20 10 11 955.9 - 0.0
24/04:30pm 10.2 5.9 5.4 72 2.3 W 17 22 9 12 955.8 - 0.0
24/04:20pm 10.4 6.8 5.1 69 2.5 W 13 17 7 9 955.6 - 0.0
24/04:10pm 10.8 7.6 5.2 68 2.6 W 11 13 6 7 955.6 - 0.0
24/04:00pm 11.4 7.8 5.0 65 3.0 W 13 17 7 9 955.5 - 0.0
24/03:50pm 10.9 6.8 4.4 64 3.0 W 15 15 8 8 955.5 - 0.0
24/03:40pm 10.5 6.1 4.7 67 2.7 W 17 19 9 10 955.5 - 0.0
24/03:30pm 11.0 6.6 4.6 64 3.0 W 17 22 9 12 955.4 - 0.0
24/03:20pm 11.1 6.2 4.3 63 3.1 W 19 20 10 11 955.4 - 0.0
24/03:10pm 11.3 6.8 4.3 62 3.2 W 17 22 9 12 955.4 - 0.0
24/03:00pm 10.5 5.7 4.4 66 2.8 W 19 26 10 14 955.4 - 0.0
24/02:50pm 10.6 5.7 4.1 64 3.0 W 19 28 10 15 955.3 - 0.0
24/02:40pm 10.6 5.6 4.5 66 2.8 W 20 24 11 13 955.2 - 0.0
24/02:30pm 10.9 5.2 4.9 66 2.8 WSW 24 32 13 17 955.2 - 0.0
24/02:20pm 11.4 6.9 6.0 69 2.6 W 19 22 10 12 955.1 - 0.0
24/02:10pm 11.7 6.3 6.2 69 2.7 W 24 28 13 15 955.1 - 0.0
24/02:00pm 11.6 6.6 6.6 71 2.4 W 22 24 12 13 955.1 - 0.0
24/01:50pm 11.5 6.9 6.3 70 2.5 W 20 26 11 14 955.3 - 0.0
24/01:40pm 11.2 6.6 6.7 74 2.2 W 20 26 11 14 955.3 - 0.0
24/01:30pm 11.1 5.6 6.1 71 2.4 W 24 32 13 17 955.4 - 0.0
24/01:20pm 11.2 6.0 5.7 69 2.6 W 22 28 12 15 955.3 - 0.0
24/01:10pm 11.3 6.8 6.2 71 2.5 W 19 22 10 12 955.3 - 0.0
24/01:00pm 11.4 6.8 6.7 73 2.3 W 20 26 11 14 955.3 - 0.0
24/12:50pm 11.6 7.0 6.5 71 2.5 WSW 20 26 11 14 955.3 - 0.0
24/12:40pm 11.9 7.4 6.9 71 2.5 WSW 20 26 11 14 955.4 - 0.0
24/12:30pm 12.0 7.6 6.6 69 2.6 W 19 26 10 14 955.4 - 0.0
24/12:20pm 11.1 7.1 6.8 75 2.1 W 17 24 9 13 955.6 - 0.0
24/12:10pm 11.5 6.5 6.6 72 2.4 W 22 28 12 15 955.5 - 0.0
24/12:00pm 11.4 6.8 6.5 72 2.4 W 20 28 11 15 955.6 - 0.0
24/11:50am 11.0 6.6 7.2 77 1.9 W 20 26 11 14 955.6 - 0.0
24/11:40am 10.8 6.2 6.7 76 2.0 W 20 26 11 14 955.7 - 0.0
24/11:30am 10.5 6.3 7.3 80 1.6 W 19 22 10 12 955.7 - 0.0
24/11:20am 9.7 5.3 7.2 84 1.2 W 20 24 11 13 955.7 - 0.0
24/11:10am 8.9 3.7 7.2 89 0.8 WSW 24 32 13 17 955.8 - 0.0
24/11:00am 9.2 4.1 7.6 90 0.8 W 24 37 13 20 955.9 - 0.0
24/10:50am 9.9 5.9 8.1 88 0.9 W 19 24 10 13 955.7 - 0.0
24/10:40am 9.9 4.8 7.8 87 1.0 W 24 28 13 15 955.5 - 0.0
24/10:30am 9.5 4.9 8.0 90 0.7 W 22 28 12 15 955.5 - 0.0
24/10:20am 10.1 5.7 7.4 83 1.3 W 20 24 11 13 955.5 - 0.0
24/10:10am 10.2 5.8 7.2 82 1.5 W 20 24 11 13 955.4 - 0.0
24/10:00am 9.7 4.8 6.9 83 1.4 W 22 28 12 15 955.3 - 0.0
24/09:50am 9.7 4.1 7.1 84 1.3 W 26 30 14 16 955.3 - 0.0
24/09:40am 9.8 3.4 7.0 83 1.4 W 30 32 16 17 955.2 - 0.0
24/09:30am 10.0 4.8 7.4 84 1.3 W 24 30 13 16 955.1 - 0.0
24/09:20am 10.0 4.8 7.4 84 1.3 W 24 28 13 15 954.9 - 0.0
24/09:10am 9.6 4.4 7.1 84 1.2 W 24 30 13 16 954.9 - 0.0
24/09:00am 9.6 5.3 7.7 88 0.9 W 20 22 11 12 954.9 - 3.2
24/08:50am 9.5 4.4 7.6 88 0.9 W 24 30 13 16 954.7 - 3.2
24/08:40am 9.5 4.4 7.7 88 0.9 W 24 26 13 14 954.5 - 3.2
24/08:30am 9.5 4.4 7.8 89 0.8 W 24 28 13 15 954.4 - 3.2
24/08:20am 9.5 3.7 7.8 89 0.8 W 28 30 15 16 954.3 - 3.2
24/08:10am 9.5 4.5 8.0 90 0.7 W 24 28 13 15 954.2 - 3.2
24/08:00am 9.5 4.5 8.0 90 0.7 W 24 28 13 15 954.1 - 3.2
24/07:50am 9.5 4.9 8.0 90 0.7 W 22 28 12 15 954.0 - 3.2
24/07:40am 9.3 5.0 8.0 92 0.6 W 20 24 11 13 953.9 - 3.2
24/07:30am 9.0 5.0 8.1 94 0.4 WNW 19 20 10 11 953.8 - 3.2
24/07:20am 8.9 4.7 8.1 95 0.4 WNW 20 22 11 12 953.5 - 3.2
24/07:10am 9.0 4.4 8.0 93 0.5 WNW 22 28 12 15 953.4 - 3.2
24/07:00am 9.1 4.1 8.2 94 0.4 WNW 24 30 13 16 953.2 - 3.2
24/06:50am 9.1 4.1 8.2 94 0.4 WNW 24 30 13 16 953.2 - 3.2
24/06:40am 9.0 4.8 8.1 94 0.4 WNW 20 26 11 14 952.9 - 3.2
24/06:30am 9.0 4.4 8.2 95 0.4 WNW 22 24 12 13 952.7 - 3.2
24/06:20am 9.0 4.8 8.2 95 0.4 WNW 20 22 11 12 952.7 - 3.2
24/06:10am 9.0 4.8 8.2 95 0.4 WNW 20 24 11 13 952.7 - 3.2
24/06:00am 9.1 4.1 8.1 93 0.5 WNW 24 28 13 15 952.6 - 3.0
24/05:50am 9.2 4.2 8.0 92 0.6 WNW 24 26 13 14 952.4 - 3.0
24/05:40am 9.1 4.1 7.9 92 0.6 NW 24 30 13 16 952.2 - 3.0
24/05:30am 8.9 4.2 7.9 93 0.5 NW 22 26 12 14 952.0 - 3.0
24/05:20am 8.8 3.4 7.9 94 0.4 NW 26 32 14 17 952.1 - 2.8
24/05:10am 8.8 3.8 7.9 94 0.4 NW 24 26 13 14 952.1 - 2.6
24/05:00am 9.0 3.6 7.8 92 0.6 NW 26 30 14 16 952.3 - 1.8
24/04:50am 9.1 4.0 7.8 92 0.6 NW 24 30 13 16 952.3 - 1.0
24/04:40am 9.2 3.8 7.8 91 0.7 NW 26 30 14 16 952.0 - 0.8
24/04:30am 9.2 3.7 7.7 90 0.7 NW 26 28 14 15 951.9 - 0.6
24/04:20am 9.3 3.8 7.7 90 0.8 NW 26 30 14 16 952.0 - 0.6
24/04:10am 9.3 3.4 7.7 90 0.8 NW 28 32 15 17 951.9 - 0.6
24/04:00am 9.2 3.3 7.7 90 0.7 NW 28 33 15 18 952.0 - 0.6
24/03:50am 9.3 3.4 7.7 90 0.8 NW 28 32 15 17 951.9 - 0.6
24/03:40am 9.4 3.6 7.8 90 0.8 NW 28 32 15 17 952.1 - 0.4
24/03:30am 9.6 3.7 7.7 88 0.9 NW 28 33 15 18 952.3 - 0.2
24/03:20am 9.8 4.0 7.8 87 1.0 NW 28 32 15 17 952.4 - 0.2
24/03:10am 10.0 4.1 7.6 85 1.2 NW 28 33 15 18 952.4 - 0.0
24/03:00am 10.1 3.8 7.5 84 1.3 NW 30 32 16 17 952.4 - 0.0
24/02:50am 10.4 4.1 7.5 82 1.4 NW 30 33 16 18 952.4 - 0.0
24/02:40am 10.7 4.0 7.3 79 1.7 NW 32 37 17 20 952.4 - 0.0
24/02:30am 10.9 3.6 7.0 77 1.9 NW 35 39 19 21 952.3 - 0.0
24/02:20am 10.8 3.8 6.9 77 1.9 NW 33 37 18 20 952.4 - 0.0
24/02:10am 10.9 3.2 7.0 77 1.9 NW 37 39 20 21 952.4 - 0.0
24/02:00am 10.8 3.9 7.1 78 1.8 NW 33 39 18 21 952.4 - 0.0
24/01:50am 10.9 3.6 7.0 77 1.9 NW 35 41 19 22 952.3 - 0.0
24/01:40am 11.0 3.3 7.0 76 2.0 NW 37 41 20 22 952.3 - 0.0
24/01:30am 11.0 3.3 7.0 76 2.0 NW 37 44 20 24 952.4 - 0.0
24/01:20am 10.8 3.5 7.0 77 1.9 NW 35 37 19 20 952.5 - 0.0
24/01:10am 10.8 3.5 7.1 78 1.8 NW 35 37 19 20 952.4 - 0.0
24/01:00am 10.8 3.5 7.0 77 1.9 NW 35 43 19 23 952.5 - 0.0
24/12:50am 10.9 3.2 7.1 77 1.9 NW 37 41 20 22 952.6 - 0.0
24/12:40am 10.9 3.2 7.0 77 1.9 NW 37 41 20 22 952.8 - 0.0
24/12:30am 10.9 3.6 7.1 77 1.9 NW 35 39 19 21 953.1 - 0.0
24/12:20am 10.9 3.2 7.0 77 1.9 NW 37 44 20 24 953.0 - 0.0
24/12:10am 10.8 3.5 7.0 77 1.9 NW 35 41 19 22 953.0 - 0.0
24/12:00am 10.9 4.0 7.1 77 1.9 NW 33 39 18 21 953.0 - 0.0
 
Date/Time
EST
Temp
°C
App
Temp
°C
Dew
Point
°C
Rel
Hum
%
Delta-T
°C
Wind Press
QNH
hPa
Press
MSL
hPa
Rain since
9am
mm
Dir  Spd
km/h
Gust
km/h
Spd
kts
Gust
kts
23/11:50pm 11.1 4.2 7.1 76 2.0 NW 33 41 18 22 953.4 - 0.0
23/11:40pm 11.1 3.8 7.0 76 2.0 NW 35 46 19 25 953.5 - 0.0
23/11:30pm 11.1 3.8 7.0 76 2.0 NW 35 44 19 24 953.5 - 0.0

Other formats

Comma delimited format used in spreadsheet applications
http://www.bom.gov.au/fwo/IDV60801/IDV60801.99820.axf

JavaScript Object Notation format (JSON) in row-major order
http://www.bom.gov.au/fwo/IDV60801/IDV60801.99820.json

Data quality

Most of these data are generated automatically and are frequently updated. Quality checks on data are not normally performed. It is possible for incorrect values to appear. Refer to information at About Latest Weather Observations and please check the disclaimer before using these data.